sensor_id;sensor_type;location;lat;lon;timestamp;P1;durP1;ratioP1;P2;durP2;ratioP2
14137;SDS011;8199;51.310;9.466;2023-07-13T00:01:24;5.53;;;1.75;;
14137;SDS011;8199;51.310;9.466;2023-07-13T00:03:50;4.93;;;1.63;;
14137;SDS011;8199;51.310;9.466;2023-07-13T00:06:16;5.70;;;1.67;;
14137;SDS011;8199;51.310;9.466;2023-07-13T00:08:42;4.97;;;1.63;;
14137;SDS011;8199;51.310;9.466;2023-07-13T00:11:07;2.63;;;1.33;;
14137;SDS011;8199;51.310;9.466;2023-07-13T00:13:35;2.30;;;1.15;;
14137;SDS011;8199;51.310;9.466;2023-07-13T00:16:03;3.20;;;1.55;;
14137;SDS011;8199;51.310;9.466;2023-07-13T00:18:28;3.47;;;1.70;;
14137;SDS011;8199;51.310;9.466;2023-07-13T00:20:55;3.30;;;1.60;;
14137;SDS011;8199;51.310;9.466;2023-07-13T00:23:21;2.13;;;1.42;;
14137;SDS011;8199;51.310;9.466;2023-07-13T00:25:46;2.50;;;1.40;;
14137;SDS011;8199;51.310;9.466;2023-07-13T00:28:12;2.80;;;1.45;;
14137;SDS011;8199;51.310;9.466;2023-07-13T00:30:38;2.67;;;1.30;;
14137;SDS011;8199;51.310;9.466;2023-07-13T00:33:03;2.95;;;1.50;;
14137;SDS011;8199;51.310;9.466;2023-07-13T00:35:30;3.15;;;1.50;;
14137;SDS011;8199;51.310;9.466;2023-07-13T00:37:56;3.83;;;1.65;;
14137;SDS011;8199;51.310;9.466;2023-07-13T00:40:21;2.53;;;1.48;;
14137;SDS011;8199;51.310;9.466;2023-07-13T00:42:47;3.45;;;1.40;;
14137;SDS011;8199;51.310;9.466;2023-07-13T00:47:38;3.25;;;1.50;;
14137;SDS011;8199;51.310;9.466;2023-07-13T00:50:06;2.22;;;1.45;;
14137;SDS011;8199;51.310;9.466;2023-07-13T00:52:35;3.20;;;1.60;;
14137;SDS011;8199;51.310;9.466;2023-07-13T00:55:03;2.03;;;1.50;;
14137;SDS011;8199;51.310;9.466;2023-07-13T00:57:29;2.60;;;1.40;;
14137;SDS011;8199;51.310;9.466;2023-07-13T00:59:55;3.25;;;1.35;;
14137;SDS011;8199;51.310;9.466;2023-07-13T01:02:23;2.08;;;1.27;;
14137;SDS011;8199;51.310;9.466;2023-07-13T01:04:50;3.17;;;1.58;;
14137;SDS011;8199;51.310;9.466;2023-07-13T01:07:15;4.40;;;1.50;;
14137;SDS011;8199;51.310;9.466;2023-07-13T01:09:42;2.45;;;1.27;;
14137;SDS011;8199;51.310;9.466;2023-07-13T01:12:09;4.30;;;1.42;;
14137;SDS011;8199;51.310;9.466;2023-07-13T01:14:35;2.88;;;1.40;;
14137;SDS011;8199;51.310;9.466;2023-07-13T01:17:01;2.60;;;1.33;;
14137;SDS011;8199;51.310;9.466;2023-07-13T01:19:35;2.65;;;1.50;;
14137;SDS011;8199;51.310;9.466;2023-07-13T01:22:14;4.03;;;1.63;;
14137;SDS011;8199;51.310;9.466;2023-07-13T01:24:41;3.35;;;1.55;;
14137;SDS011;8199;51.310;9.466;2023-07-13T01:27:09;3.22;;;1.27;;
14137;SDS011;8199;51.310;9.466;2023-07-13T01:29:41;2.50;;;1.40;;
14137;SDS011;8199;51.310;9.466;2023-07-13T01:32:08;2.95;;;1.48;;
14137;SDS011;8199;51.310;9.466;2023-07-13T01:34:36;2.85;;;1.77;;
14137;SDS011;8199;51.310;9.466;2023-07-13T01:37:02;2.55;;;1.30;;
14137;SDS011;8199;51.310;9.466;2023-07-13T01:39:29;2.25;;;1.20;;
14137;SDS011;8199;51.310;9.466;2023-07-13T01:41:54;2.15;;;1.27;;
14137;SDS011;8199;51.310;9.466;2023-07-13T01:44:20;2.05;;;1.20;;
14137;SDS011;8199;51.310;9.466;2023-07-13T01:46:45;2.42;;;1.77;;
14137;SDS011;8199;51.310;9.466;2023-07-13T01:49:11;3.00;;;1.20;;
14137;SDS011;8199;51.310;9.466;2023-07-13T01:51:37;2.95;;;1.40;;
14137;SDS011;8199;51.310;9.466;2023-07-13T01:54:02;2.90;;;1.40;;
14137;SDS011;8199;51.310;9.466;2023-07-13T01:56:28;2.70;;;1.20;;
14137;SDS011;8199;51.310;9.466;2023-07-13T01:58:53;4.53;;;1.40;;
14137;SDS011;8199;51.310;9.466;2023-07-13T02:01:19;4.47;;;1.30;;
14137;SDS011;8199;51.310;9.466;2023-07-13T02:03:44;2.10;;;1.55;;
14137;SDS011;8199;51.310;9.466;2023-07-13T02:06:11;2.03;;;1.35;;
14137;SDS011;8199;51.310;9.466;2023-07-13T02:08:37;2.28;;;1.30;;
14137;SDS011;8199;51.310;9.466;2023-07-13T02:11:02;2.85;;;1.63;;
14137;SDS011;8199;51.310;9.466;2023-07-13T02:13:28;3.15;;;1.55;;
14137;SDS011;8199;51.310;9.466;2023-07-13T02:15:54;3.40;;;1.65;;
14137;SDS011;8199;51.310;9.466;2023-07-13T02:18:19;2.63;;;1.45;;
14137;SDS011;8199;51.310;9.466;2023-07-13T02:20:45;3.63;;;1.50;;
14137;SDS011;8199;51.310;9.466;2023-07-13T02:23:11;2.20;;;1.40;;
14137;SDS011;8199;51.310;9.466;2023-07-13T02:25:37;2.20;;;1.50;;
14137;SDS011;8199;51.310;9.466;2023-07-13T02:28:02;2.85;;;1.40;;
14137;SDS011;8199;51.310;9.466;2023-07-13T02:30:28;4.68;;;1.42;;
14137;SDS011;8199;51.310;9.466;2023-07-13T02:32:55;2.60;;;1.50;;
14137;SDS011;8199;51.310;9.466;2023-07-13T02:35:21;3.03;;;1.73;;
14137;SDS011;8199;51.310;9.466;2023-07-13T02:37:47;3.05;;;1.52;;
14137;SDS011;8199;51.310;9.466;2023-07-13T02:40:13;2.83;;;1.67;;
14137;SDS011;8199;51.310;9.466;2023-07-13T02:42:39;2.97;;;1.73;;
14137;SDS011;8199;51.310;9.466;2023-07-13T02:45:05;2.33;;;1.30;;
14137;SDS011;8199;51.310;9.466;2023-07-13T02:47:32;2.42;;;1.50;;
14137;SDS011;8199;51.310;9.466;2023-07-13T02:49:58;2.30;;;1.52;;
14137;SDS011;8199;51.310;9.466;2023-07-13T02:52:24;2.65;;;1.40;;
14137;SDS011;8199;51.310;9.466;2023-07-13T02:54:50;2.47;;;1.70;;
14137;SDS011;8199;51.310;9.466;2023-07-13T02:57:15;3.35;;;1.77;;
14137;SDS011;8199;51.310;9.466;2023-07-13T02:59:41;2.58;;;1.55;;
14137;SDS011;8199;51.310;9.466;2023-07-13T03:02:07;2.60;;;1.67;;
14137;SDS011;8199;51.310;9.466;2023-07-13T03:04:34;4.07;;;2.05;;
14137;SDS011;8199;51.310;9.466;2023-07-13T03:07:00;3.17;;;1.77;;
14137;SDS011;8199;51.310;9.466;2023-07-13T03:09:26;2.92;;;1.50;;
14137;SDS011;8199;51.310;9.466;2023-07-13T03:11:53;2.10;;;1.73;;
14137;SDS011;8199;51.310;9.466;2023-07-13T03:14:19;3.85;;;1.90;;
14137;SDS011;8199;51.310;9.466;2023-07-13T03:16:45;4.60;;;2.10;;
14137;SDS011;8199;51.310;9.466;2023-07-13T03:19:11;4.28;;;1.98;;
14137;SDS011;8199;51.310;9.466;2023-07-13T03:21:36;4.57;;;1.98;;
14137;SDS011;8199;51.310;9.466;2023-07-13T03:24:02;3.63;;;1.80;;
14137;SDS011;8199;51.310;9.466;2023-07-13T03:26:28;3.95;;;1.85;;
14137;SDS011;8199;51.310;9.466;2023-07-13T03:28:53;4.15;;;1.58;;
14137;SDS011;8199;51.310;9.466;2023-07-13T03:31:20;3.40;;;1.98;;
14137;SDS011;8199;51.310;9.466;2023-07-13T03:33:47;3.10;;;1.50;;
14137;SDS011;8199;51.310;9.466;2023-07-13T03:36:14;5.43;;;1.98;;
14137;SDS011;8199;51.310;9.466;2023-07-13T03:38:59;3.97;;;2.13;;
14137;SDS011;8199;51.310;9.466;2023-07-13T03:41:26;3.78;;;1.90;;
14137;SDS011;8199;51.310;9.466;2023-07-13T03:43:52;5.22;;;1.98;;
14137;SDS011;8199;51.310;9.466;2023-07-13T03:46:18;3.85;;;1.70;;
14137;SDS011;8199;51.310;9.466;2023-07-13T03:48:44;4.38;;;1.80;;
14137;SDS011;8199;51.310;9.466;2023-07-13T03:51:12;4.75;;;2.28;;
14137;SDS011;8199;51.310;9.466;2023-07-13T03:53:40;3.83;;;2.10;;
14137;SDS011;8199;51.310;9.466;2023-07-13T03:56:08;5.47;;;2.08;;
14137;SDS011;8199;51.310;9.466;2023-07-13T03:58:37;2.85;;;1.90;;
14137;SDS011;8199;51.310;9.466;2023-07-13T04:01:05;2.97;;;1.85;;
14137;SDS011;8199;51.310;9.466;2023-07-13T04:03:32;4.22;;;1.92;;
14137;SDS011;8199;51.310;9.466;2023-07-13T04:05:58;5.93;;;2.30;;
14137;SDS011;8199;51.310;9.466;2023-07-13T04:08:26;4.65;;;2.00;;
14137;SDS011;8199;51.310;9.466;2023-07-13T04:10:53;5.10;;;1.98;;
14137;SDS011;8199;51.310;9.466;2023-07-13T04:13:18;4.63;;;2.00;;
14137;SDS011;8199;51.310;9.466;2023-07-13T04:15:44;3.22;;;1.90;;
14137;SDS011;8199;51.310;9.466;2023-07-13T04:18:09;5.72;;;2.05;;
14137;SDS011;8199;51.310;9.466;2023-07-13T04:20:35;3.97;;;2.00;;
14137;SDS011;8199;51.310;9.466;2023-07-13T04:23:01;4.00;;;1.90;;
14137;SDS011;8199;51.310;9.466;2023-07-13T04:25:26;3.40;;;2.15;;
14137;SDS011;8199;51.310;9.466;2023-07-13T04:27:52;3.22;;;1.80;;
14137;SDS011;8199;51.310;9.466;2023-07-13T04:30:19;3.00;;;1.90;;
14137;SDS011;8199;51.310;9.466;2023-07-13T04:32:45;4.45;;;2.17;;
14137;SDS011;8199;51.310;9.466;2023-07-13T04:35:11;3.33;;;2.20;;
14137;SDS011;8199;51.310;9.466;2023-07-13T04:37:37;3.75;;;1.98;;
14137;SDS011;8199;51.310;9.466;2023-07-13T04:40:02;3.72;;;1.88;;
14137;SDS011;8199;51.310;9.466;2023-07-13T04:42:28;4.20;;;1.90;;
14137;SDS011;8199;51.310;9.466;2023-07-13T04:44:54;5.20;;;2.08;;
14137;SDS011;8199;51.310;9.466;2023-07-13T04:47:20;4.63;;;2.10;;
14137;SDS011;8199;51.310;9.466;2023-07-13T04:49:46;4.13;;;1.88;;
14137;SDS011;8199;51.310;9.466;2023-07-13T04:52:12;5.40;;;2.45;;
14137;SDS011;8199;51.310;9.466;2023-07-13T04:54:38;3.85;;;2.10;;
14137;SDS011;8199;51.310;9.466;2023-07-13T04:57:04;7.97;;;2.50;;
14137;SDS011;8199;51.310;9.466;2023-07-13T04:59:32;14.65;;;2.88;;
14137;SDS011;8199;51.310;9.466;2023-07-13T05:01:58;10.75;;;2.63;;
14137;SDS011;8199;51.310;9.466;2023-07-13T05:04:23;11.93;;;3.67;;
14137;SDS011;8199;51.310;9.466;2023-07-13T05:06:49;13.32;;;2.95;;
14137;SDS011;8199;51.310;9.466;2023-07-13T05:09:15;10.80;;;3.30;;
14137;SDS011;8199;51.310;9.466;2023-07-13T05:11:40;5.72;;;2.70;;
14137;SDS011;8199;51.310;9.466;2023-07-13T05:14:06;9.57;;;2.70;;
14137;SDS011;8199;51.310;9.466;2023-07-13T05:16:31;4.90;;;2.33;;
14137;SDS011;8199;51.310;9.466;2023-07-13T05:18:57;11.52;;;4.03;;
14137;SDS011;8199;51.310;9.466;2023-07-13T05:21:23;8.82;;;3.30;;
14137;SDS011;8199;51.310;9.466;2023-07-13T05:23:49;7.97;;;2.53;;
14137;SDS011;8199;51.310;9.466;2023-07-13T05:26:15;8.82;;;2.80;;
14137;SDS011;8199;51.310;9.466;2023-07-13T05:28:41;5.90;;;2.85;;
14137;SDS011;8199;51.310;9.466;2023-07-13T05:31:08;6.88;;;3.13;;
14137;SDS011;8199;51.310;9.466;2023-07-13T05:33:34;9.43;;;3.00;;
14137;SDS011;8199;51.310;9.466;2023-07-13T05:36:00;12.70;;;3.80;;
14137;SDS011;8199;51.310;9.466;2023-07-13T05:38:26;10.30;;;3.20;;
14137;SDS011;8199;51.310;9.466;2023-07-13T05:40:53;10.07;;;3.70;;
14137;SDS011;8199;51.310;9.466;2023-07-13T05:43:20;9.80;;;3.45;;
14137;SDS011;8199;51.310;9.466;2023-07-13T05:45:46;8.77;;;2.95;;
14137;SDS011;8199;51.310;9.466;2023-07-13T05:48:11;10.30;;;3.55;;
14137;SDS011;8199;51.310;9.466;2023-07-13T05:50:37;7.68;;;3.15;;
14137;SDS011;8199;51.310;9.466;2023-07-13T05:53:03;8.57;;;3.13;;
14137;SDS011;8199;51.310;9.466;2023-07-13T05:55:29;7.30;;;2.97;;
14137;SDS011;8199;51.310;9.466;2023-07-13T05:57:54;12.05;;;3.33;;
14137;SDS011;8199;51.310;9.466;2023-07-13T06:00:20;8.05;;;3.03;;
14137;SDS011;8199;51.310;9.466;2023-07-13T06:02:46;7.05;;;3.50;;
14137;SDS011;8199;51.310;9.466;2023-07-13T06:05:11;9.27;;;3.70;;
14137;SDS011;8199;51.310;9.466;2023-07-13T06:07:37;9.90;;;3.40;;
14137;SDS011;8199;51.310;9.466;2023-07-13T06:10:03;7.40;;;3.70;;
14137;SDS011;8199;51.310;9.466;2023-07-13T06:12:29;9.40;;;3.90;;
14137;SDS011;8199;51.310;9.466;2023-07-13T06:14:54;15.20;;;4.97;;
14137;SDS011;8199;51.310;9.466;2023-07-13T06:17:20;10.20;;;4.53;;
14137;SDS011;8199;51.310;9.466;2023-07-13T06:19:45;9.48;;;4.03;;
14137;SDS011;8199;51.310;9.466;2023-07-13T06:22:11;10.27;;;4.10;;
14137;SDS011;8199;51.310;9.466;2023-07-13T06:24:36;10.80;;;4.65;;
14137;SDS011;8199;51.310;9.466;2023-07-13T06:27:02;12.75;;;4.35;;
14137;SDS011;8199;51.310;9.466;2023-07-13T06:29:28;9.63;;;3.75;;
14137;SDS011;8199;51.310;9.466;2023-07-13T06:31:53;9.20;;;4.03;;
14137;SDS011;8199;51.310;9.466;2023-07-13T06:34:19;11.07;;;4.57;;
14137;SDS011;8199;51.310;9.466;2023-07-13T06:36:45;12.75;;;4.00;;
14137;SDS011;8199;51.310;9.466;2023-07-13T06:39:10;10.50;;;3.58;;
14137;SDS011;8199;51.310;9.466;2023-07-13T06:41:36;9.95;;;3.63;;
14137;SDS011;8199;51.310;9.466;2023-07-13T06:44:03;9.95;;;4.60;;
14137;SDS011;8199;51.310;9.466;2023-07-13T06:46:29;9.07;;;4.22;;
14137;SDS011;8199;51.310;9.466;2023-07-13T06:48:55;9.25;;;4.05;;
14137;SDS011;8199;51.310;9.466;2023-07-13T06:51:20;7.18;;;3.45;;
14137;SDS011;8199;51.310;9.466;2023-07-13T06:53:46;7.78;;;3.92;;
14137;SDS011;8199;51.310;9.466;2023-07-13T06:56:12;9.75;;;3.45;;
14137;SDS011;8199;51.310;9.466;2023-07-13T06:58:38;9.10;;;4.30;;
14137;SDS011;8199;51.310;9.466;2023-07-13T07:01:04;8.35;;;3.90;;
14137;SDS011;8199;51.310;9.466;2023-07-13T07:03:30;8.38;;;4.30;;
14137;SDS011;8199;51.310;9.466;2023-07-13T07:06:05;10.45;;;3.83;;
14137;SDS011;8199;51.310;9.466;2023-07-13T07:08:37;8.45;;;4.10;;
14137;SDS011;8199;51.310;9.466;2023-07-13T07:11:02;8.48;;;3.60;;
14137;SDS011;8199;51.310;9.466;2023-07-13T07:13:28;10.18;;;4.18;;
14137;SDS011;8199;51.310;9.466;2023-07-13T07:15:53;9.60;;;3.97;;
14137;SDS011;8199;51.310;9.466;2023-07-13T07:18:19;8.02;;;3.72;;
14137;SDS011;8199;51.310;9.466;2023-07-13T07:20:44;9.55;;;3.70;;
14137;SDS011;8199;51.310;9.466;2023-07-13T07:23:10;8.80;;;3.58;;
14137;SDS011;8199;51.310;9.466;2023-07-13T07:25:35;7.78;;;3.80;;
14137;SDS011;8199;51.310;9.466;2023-07-13T07:28:06;6.63;;;3.65;;
14137;SDS011;8199;51.310;9.466;2023-07-13T07:30:33;8.38;;;3.72;;
14137;SDS011;8199;51.310;9.466;2023-07-13T07:32:58;5.32;;;3.47;;
14137;SDS011;8199;51.310;9.466;2023-07-13T07:35:24;7.82;;;3.63;;
14137;SDS011;8199;51.310;9.466;2023-07-13T07:37:49;6.55;;;3.35;;
14137;SDS011;8199;51.310;9.466;2023-07-13T07:40:15;7.15;;;3.85;;
14137;SDS011;8199;51.310;9.466;2023-07-13T07:42:41;7.03;;;3.10;;
14137;SDS011;8199;51.310;9.466;2023-07-13T07:45:06;6.65;;;3.45;;
14137;SDS011;8199;51.310;9.466;2023-07-13T07:47:32;6.93;;;3.65;;
14137;SDS011;8199;51.310;9.466;2023-07-13T07:49:58;5.80;;;3.40;;
14137;SDS011;8199;51.310;9.466;2023-07-13T07:52:23;7.95;;;4.03;;
14137;SDS011;8199;51.310;9.466;2023-07-13T07:54:49;7.88;;;3.47;;
14137;SDS011;8199;51.310;9.466;2023-07-13T07:57:14;6.18;;;3.53;;
14137;SDS011;8199;51.310;9.466;2023-07-13T07:59:40;8.63;;;3.63;;
14137;SDS011;8199;51.310;9.466;2023-07-13T08:02:06;6.60;;;3.17;;
14137;SDS011;8199;51.310;9.466;2023-07-13T08:04:33;6.25;;;3.38;;
14137;SDS011;8199;51.310;9.466;2023-07-13T08:06:59;6.78;;;3.60;;
14137;SDS011;8199;51.310;9.466;2023-07-13T08:09:27;5.57;;;3.05;;
14137;SDS011;8199;51.310;9.466;2023-07-13T08:11:53;7.03;;;3.10;;
14137;SDS011;8199;51.310;9.466;2023-07-13T08:14:19;7.15;;;3.85;;
14137;SDS011;8199;51.310;9.466;2023-07-13T08:16:45;6.72;;;3.38;;
14137;SDS011;8199;51.310;9.466;2023-07-13T08:19:10;4.95;;;2.88;;
14137;SDS011;8199;51.310;9.466;2023-07-13T08:21:36;6.40;;;3.05;;
14137;SDS011;8199;51.310;9.466;2023-07-13T08:24:02;5.43;;;3.22;;
14137;SDS011;8199;51.310;9.466;2023-07-13T08:26:28;5.15;;;3.15;;
14137;SDS011;8199;51.310;9.466;2023-07-13T08:28:53;4.95;;;3.05;;
14137;SDS011;8199;51.310;9.466;2023-07-13T08:31:19;5.72;;;3.25;;
14137;SDS011;8199;51.310;9.466;2023-07-13T08:33:45;5.63;;;3.00;;
14137;SDS011;8199;51.310;9.466;2023-07-13T08:36:10;4.72;;;2.90;;
14137;SDS011;8199;51.310;9.466;2023-07-13T08:38:36;5.55;;;3.00;;
14137;SDS011;8199;51.310;9.466;2023-07-13T08:41:03;4.18;;;2.80;;
14137;SDS011;8199;51.310;9.466;2023-07-13T08:43:36;6.97;;;3.50;;
14137;SDS011;8199;51.310;9.466;2023-07-13T08:48:42;4.75;;;2.55;;
14137;SDS011;8199;51.310;9.466;2023-07-13T08:51:19;6.45;;;3.00;;
14137;SDS011;8199;51.310;9.466;2023-07-13T08:54:12;4.10;;;2.63;;
14137;SDS011;8199;51.310;9.466;2023-07-13T08:56:53;3.67;;;2.60;;
14137;SDS011;8199;51.310;9.466;2023-07-13T08:59:21;5.15;;;2.70;;
14137;SDS011;8199;51.310;9.466;2023-07-13T09:01:53;4.57;;;2.60;;
14137;SDS011;8199;51.310;9.466;2023-07-13T09:04:32;4.88;;;2.88;;
14137;SDS011;8199;51.310;9.466;2023-07-13T09:09:48;4.35;;;2.63;;
14137;SDS011;8199;51.310;9.466;2023-07-13T09:12:30;4.22;;;2.80;;
14137;SDS011;8199;51.310;9.466;2023-07-13T09:15:17;5.28;;;3.03;;
14137;SDS011;8199;51.310;9.466;2023-07-13T09:17:50;6.85;;;3.10;;
14137;SDS011;8199;51.310;9.466;2023-07-13T09:23:12;5.60;;;2.78;;
14137;SDS011;8199;51.310;9.466;2023-07-13T09:25:40;4.75;;;2.75;;
14137;SDS011;8199;51.310;9.466;2023-07-13T09:30:39;4.32;;;2.60;;
14137;SDS011;8199;51.310;9.466;2023-07-13T09:33:10;4.28;;;2.50;;
14137;SDS011;8199;51.310;9.466;2023-07-13T09:35:35;3.72;;;2.38;;
14137;SDS011;8199;51.310;9.466;2023-07-13T09:38:11;4.03;;;2.55;;
14137;SDS011;8199;51.310;9.466;2023-07-13T09:46:26;4.20;;;1.98;;
14137;SDS011;8199;51.310;9.466;2023-07-13T09:48:52;3.85;;;2.55;;
14137;SDS011;8199;51.310;9.466;2023-07-13T09:51:17;3.13;;;2.47;;
14137;SDS011;8199;51.310;9.466;2023-07-13T09:53:43;5.32;;;2.55;;
14137;SDS011;8199;51.310;9.466;2023-07-13T09:59:18;4.57;;;2.92;;
14137;SDS011;8199;51.310;9.466;2023-07-13T10:01:45;4.13;;;2.55;;
14137;SDS011;8199;51.310;9.466;2023-07-13T10:04:13;3.38;;;2.38;;
14137;SDS011;8199;51.310;9.466;2023-07-13T10:06:43;3.72;;;2.67;;
14137;SDS011;8199;51.310;9.466;2023-07-13T10:09:10;4.03;;;2.63;;
14137;SDS011;8199;51.310;9.466;2023-07-13T10:11:40;3.05;;;2.35;;
14137;SDS011;8199;51.310;9.466;2023-07-13T10:14:10;3.88;;;2.33;;
14137;SDS011;8199;51.310;9.466;2023-07-13T10:16:41;3.80;;;2.53;;
14137;SDS011;8199;51.310;9.466;2023-07-13T10:19:13;4.35;;;2.60;;
14137;SDS011;8199;51.310;9.466;2023-07-13T10:21:52;4.43;;;2.15;;
14137;SDS011;8199;51.310;9.466;2023-07-13T10:24:26;3.53;;;2.17;;
14137;SDS011;8199;51.310;9.466;2023-07-13T10:29:42;3.72;;;2.35;;
14137;SDS011;8199;51.310;9.466;2023-07-13T10:32:22;2.95;;;2.20;;
14137;SDS011;8199;51.310;9.466;2023-07-13T10:34:50;3.45;;;2.00;;
14137;SDS011;8199;51.310;9.466;2023-07-13T10:37:24;3.67;;;2.40;;
14137;SDS011;8199;51.310;9.466;2023-07-13T10:39:53;3.75;;;2.17;;
14137;SDS011;8199;51.310;9.466;2023-07-13T10:44:55;4.07;;;2.55;;
14137;SDS011;8199;51.310;9.466;2023-07-13T10:47:21;4.00;;;2.35;;
14137;SDS011;8199;51.310;9.466;2023-07-13T10:49:47;3.08;;;2.30;;
14137;SDS011;8199;51.310;9.466;2023-07-13T10:53:17;3.88;;;2.60;;
14137;SDS011;8199;51.310;9.466;2023-07-13T10:55:31;3.35;;;2.13;;
14137;SDS011;8199;51.310;9.466;2023-07-13T10:58:41;4.13;;;2.70;;
14137;SDS011;8199;51.310;9.466;2023-07-13T11:00:51;4.05;;;1.95;;
14137;SDS011;8199;51.310;9.466;2023-07-13T11:03:31;3.33;;;2.28;;
14137;SDS011;8199;51.310;9.466;2023-07-13T11:06:07;3.05;;;2.03;;
14137;SDS011;8199;51.310;9.466;2023-07-13T11:08:53;3.17;;;2.00;;
14137;SDS011;8199;51.310;9.466;2023-07-13T11:18:47;2.88;;;2.10;;
14137;SDS011;8199;51.310;9.466;2023-07-13T11:21:20;2.60;;;1.90;;
14137;SDS011;8199;51.310;9.466;2023-07-13T11:24:20;2.42;;;1.90;;
14137;SDS011;8199;51.310;9.466;2023-07-13T11:29:32;3.67;;;1.80;;
14137;SDS011;8199;51.310;9.466;2023-07-13T11:32:20;3.25;;;2.15;;
14137;SDS011;8199;51.310;9.466;2023-07-13T11:34:48;2.03;;;1.70;;
14137;SDS011;8199;51.310;9.466;2023-07-13T11:37:15;2.22;;;1.90;;
14137;SDS011;8199;51.310;9.466;2023-07-13T11:39:43;3.45;;;2.00;;
14137;SDS011;8199;51.310;9.466;2023-07-13T11:42:16;2.35;;;1.70;;
14137;SDS011;8199;51.310;9.466;2023-07-13T11:44:47;2.90;;;1.95;;
14137;SDS011;8199;51.310;9.466;2023-07-13T11:47:16;2.63;;;2.17;;
14137;SDS011;8199;51.310;9.466;2023-07-13T11:49:47;3.47;;;1.92;;
14137;SDS011;8199;51.310;9.466;2023-07-13T11:52:15;2.85;;;2.10;;
14137;SDS011;8199;51.310;9.466;2023-07-13T11:54:48;2.88;;;2.00;;
14137;SDS011;8199;51.310;9.466;2023-07-13T12:00:09;2.50;;;1.92;;
14137;SDS011;8199;51.310;9.466;2023-07-13T12:02:40;2.40;;;1.98;;
14137;SDS011;8199;51.310;9.466;2023-07-13T12:05:12;2.22;;;1.85;;
14137;SDS011;8199;51.310;9.466;2023-07-13T12:07:40;2.05;;;1.83;;
14137;SDS011;8199;51.310;9.466;2023-07-13T12:12:53;2.08;;;1.80;;
14137;SDS011;8199;51.310;9.466;2023-07-13T12:15:21;3.22;;;2.20;;
14137;SDS011;8199;51.310;9.466;2023-07-13T12:17:48;2.60;;;1.80;;
14137;SDS011;8199;51.310;9.466;2023-07-13T12:20:19;3.22;;;1.77;;
14137;SDS011;8199;51.310;9.466;2023-07-13T12:22:49;3.08;;;2.03;;
14137;SDS011;8199;51.310;9.466;2023-07-13T12:25:15;3.15;;;2.20;;
14137;SDS011;8199;51.310;9.466;2023-07-13T12:27:42;2.92;;;2.08;;
14137;SDS011;8199;51.310;9.466;2023-07-13T12:33:11;4.05;;;2.08;;
14137;SDS011;8199;51.310;9.466;2023-07-13T12:35:41;2.20;;;1.88;;
14137;SDS011;8199;51.310;9.466;2023-07-13T12:38:10;2.95;;;2.13;;
14137;SDS011;8199;51.310;9.466;2023-07-13T12:40:36;3.63;;;1.90;;
14137;SDS011;8199;51.310;9.466;2023-07-13T12:43:03;2.50;;;1.80;;
14137;SDS011;8199;51.310;9.466;2023-07-13T12:45:31;2.50;;;1.83;;
14137;SDS011;8199;51.310;9.466;2023-07-13T12:47:58;2.58;;;1.83;;
14137;SDS011;8199;51.310;9.466;2023-07-13T12:50:31;2.47;;;2.05;;
14137;SDS011;8199;51.310;9.466;2023-07-13T12:53:03;2.70;;;2.08;;
14137;SDS011;8199;51.310;9.466;2023-07-13T12:55:37;2.45;;;1.85;;
14137;SDS011;8199;51.310;9.466;2023-07-13T12:58:19;2.83;;;2.08;;
14137;SDS011;8199;51.310;9.466;2023-07-13T13:00:50;2.30;;;1.83;;
14137;SDS011;8199;51.310;9.466;2023-07-13T13:03:22;2.35;;;1.63;;
14137;SDS011;8199;51.310;9.466;2023-07-13T13:06:01;2.50;;;1.70;;
14137;SDS011;8199;51.310;9.466;2023-07-13T13:08:57;2.10;;;1.80;;
14137;SDS011;8199;51.310;9.466;2023-07-13T13:11:25;3.83;;;2.13;;
14137;SDS011;8199;51.310;9.466;2023-07-13T13:13:52;3.85;;;1.98;;
14137;SDS011;8199;51.310;9.466;2023-07-13T13:16:20;2.78;;;2.10;;
14137;SDS011;8199;51.310;9.466;2023-07-13T13:19:16;3.63;;;2.25;;
14137;SDS011;8199;51.310;9.466;2023-07-13T13:21:47;5.20;;;2.58;;
14137;SDS011;8199;51.310;9.466;2023-07-13T13:24:18;3.30;;;2.05;;
14137;SDS011;8199;51.310;9.466;2023-07-13T13:26:45;2.55;;;1.73;;
14137;SDS011;8199;51.310;9.466;2023-07-13T13:29:13;3.47;;;2.10;;
14137;SDS011;8199;51.310;9.466;2023-07-13T13:31:41;4.97;;;2.08;;
14137;SDS011;8199;51.310;9.466;2023-07-13T13:34:08;3.05;;;2.20;;
14137;SDS011;8199;51.310;9.466;2023-07-13T13:36:38;2.30;;;2.00;;
14137;SDS011;8199;51.310;9.466;2023-07-13T13:39:16;3.42;;;2.10;;
14137;SDS011;8199;51.310;9.466;2023-07-13T13:41:49;11.32;;;2.38;;
14137;SDS011;8199;51.310;9.466;2023-07-13T13:44:16;2.58;;;2.22;;
14137;SDS011;8199;51.310;9.466;2023-07-13T13:46:43;4.88;;;3.00;;
14137;SDS011;8199;51.310;9.466;2023-07-13T13:49:14;3.97;;;3.10;;
14137;SDS011;8199;51.310;9.466;2023-07-13T13:51:42;6.20;;;3.25;;
14137;SDS011;8199;51.310;9.466;2023-07-13T13:54:12;6.45;;;4.78;;
14137;SDS011;8199;51.310;9.466;2023-07-13T13:56:38;17.88;;;16.00;;
14137;SDS011;8199;51.310;9.466;2023-07-13T13:59:05;477.70;;;430.80;;
14137;SDS011;8199;51.310;9.466;2023-07-13T14:01:31;591.67;;;534.53;;
14137;SDS011;8199;51.310;9.466;2023-07-13T14:03:57;506.45;;;457.60;;
14137;SDS011;8199;51.310;9.466;2023-07-13T14:06:24;127.93;;;114.22;;
14137;SDS011;8199;51.310;9.466;2023-07-13T14:08:49;179.07;;;160.52;;
14137;SDS011;8199;51.310;9.466;2023-07-13T14:11:16;393.27;;;357.20;;
14137;SDS011;8199;51.310;9.466;2023-07-13T14:13:54;252.43;;;227.45;;
14137;SDS011;8199;51.310;9.466;2023-07-13T14:16:24;5.90;;;4.30;;
14137;SDS011;8199;51.310;9.466;2023-07-13T14:18:56;95.40;;;85.72;;
14137;SDS011;8199;51.310;9.466;2023-07-13T14:21:24;166.10;;;148.85;;
14137;SDS011;8199;51.310;9.466;2023-07-13T14:23:51;10.18;;;6.80;;
14137;SDS011;8199;51.310;9.466;2023-07-13T14:26:18;261.48;;;236.95;;
14137;SDS011;8199;51.310;9.466;2023-07-13T14:28:49;8.00;;;5.97;;
14137;SDS011;8199;51.310;9.466;2023-07-13T14:31:18;7.38;;;4.80;;
14137;SDS011;8199;51.310;9.466;2023-07-13T14:33:44;6.70;;;3.35;;
14137;SDS011;8199;51.310;9.466;2023-07-13T14:36:17;4.85;;;2.70;;
14137;SDS011;8199;51.310;9.466;2023-07-13T14:38:46;3.78;;;2.90;;
14137;SDS011;8199;51.310;9.466;2023-07-13T14:41:11;4.05;;;2.50;;
14137;SDS011;8199;51.310;9.466;2023-07-13T14:43:37;3.20;;;2.20;;
14137;SDS011;8199;51.310;9.466;2023-07-13T14:46:02;4.18;;;2.40;;
14137;SDS011;8199;51.310;9.466;2023-07-13T14:48:29;2.95;;;1.50;;
14137;SDS011;8199;51.310;9.466;2023-07-13T14:50:56;2.75;;;1.52;;
14137;SDS011;8199;51.310;9.466;2023-07-13T14:53:24;2.35;;;1.30;;
14137;SDS011;8199;51.310;9.466;2023-07-13T14:55:52;2.90;;;1.30;;
14137;SDS011;8199;51.310;9.466;2023-07-13T14:58:18;1.92;;;1.10;;
14137;SDS011;8199;51.310;9.466;2023-07-13T15:00:43;1.70;;;1.25;;
14137;SDS011;8199;51.310;9.466;2023-07-13T15:03:17;3.20;;;1.20;;
14137;SDS011;8199;51.310;9.466;2023-07-13T15:05:46;2.20;;;1.50;;
14137;SDS011;8199;51.310;9.466;2023-07-13T15:08:13;2.92;;;1.33;;
14137;SDS011;8199;51.310;9.466;2023-07-13T15:10:39;3.08;;;1.52;;
14137;SDS011;8199;51.310;9.466;2023-07-13T15:13:21;3.10;;;1.30;;
14137;SDS011;8199;51.310;9.466;2023-07-13T15:15:47;2.55;;;1.50;;
14137;SDS011;8199;51.310;9.466;2023-07-13T15:18:15;1.95;;;1.15;;
14137;SDS011;8199;51.310;9.466;2023-07-13T15:20:43;1.75;;;1.17;;
14137;SDS011;8199;51.310;9.466;2023-07-13T15:23:10;3.17;;;1.05;;
14137;SDS011;8199;51.310;9.466;2023-07-13T15:25:36;1.25;;;0.98;;
14137;SDS011;8199;51.310;9.466;2023-07-13T15:28:02;2.70;;;1.00;;
14137;SDS011;8199;51.310;9.466;2023-07-13T15:30:29;2.28;;;1.17;;
14137;SDS011;8199;51.310;9.466;2023-07-13T15:32:59;3.50;;;1.00;;
14137;SDS011;8199;51.310;9.466;2023-07-13T15:35:31;1.48;;;1.00;;
14137;SDS011;8199;51.310;9.466;2023-07-13T15:37:58;2.13;;;1.10;;
14137;SDS011;8199;51.310;9.466;2023-07-13T15:40:24;1.52;;;1.10;;
14137;SDS011;8199;51.310;9.466;2023-07-13T15:42:50;3.03;;;0.88;;
14137;SDS011;8199;51.310;9.466;2023-07-13T15:45:18;2.13;;;1.10;;
14137;SDS011;8199;51.310;9.466;2023-07-13T15:47:49;2.65;;;1.10;;
14137;SDS011;8199;51.310;9.466;2023-07-13T15:50:16;1.73;;;1.00;;